F/V Pasiphae 2 — FMFN — position and weather

sailwx.info

Track history (hours):
 
Tides and Currents Weather Stations Pressure Air Temp Water Temp Dewpoint Dewpoint Depression Visibility Wind Speed Wind Dir Waves Ship Positions

F/V Pasiphae 2

Last reported at 2017-Jun-29 05:42 UTC. Time now 2017-Jun-29 14:24 UTC.
Position N 47°17' W 003°26'.

Length 14 m.

Type: Fishing. MMSI: 228224800.

Date/timePositionNaut miles runAvg speedWind from/ knotsBaromVisibWave heightAir tempDewpointWater temp
2017-Jun-29 05:42N 47°17' W 003°26'1 0.6
2017-Jun-29 03:53N 47°18' W 003°25'3 8.0
2017-Jun-29 03:30N 47°21' W 003°24'4 8.3
2017-Jun-29 03:00N 47°25' W 003°24'4 8.6
2017-Jun-29 02:30N 47°29' W 003°23'4 8.8
2017-Jun-29 02:00N 47°33' W 003°23'5 9.1
2017-Jun-29 01:30N 47°38' W 003°23'5 9.3
2017-Jun-29 01:00N 47°43' W 003°22'1 2.2
2017-Jun-29 00:30N 47°44' W 003°22'3 5.8
2017-Jun-29 00:00N 47°41' W 003°22'4 8.8
2017-Jun-28 23:30N 47°37' W 003°23'4 8.3
2017-Jun-28 23:00N 47°32' W 003°24'4 8.4
2017-Jun-28 22:30N 47°28' W 003°25'4 8.2
2017-Jun-28 22:00N 47°24' W 003°27'4 7.9
2017-Jun-28 21:30N 47°20' W 003°28'1311.7
2017-Jun-28 20:21N 47°08' W 003°34'1 3.3
2017-Jun-28 20:00N 47°07' W 003°33'2 0.3
2017-Jun-28 14:36N 47°08' W 003°30'11 1.0
2017-Jun-28 04:02N 47°18' W 003°28'2 8.3
2017-Jun-28 03:46N 47°20' W 003°27'2 8.5
2017-Jun-28 03:30N 47°22' W 003°26'6 8.8
2017-Jun-28 02:52N 47°28' W 003°25'3 8.8
2017-Jun-28 02:30N 47°31' W 003°24'4 8.8
2017-Jun-28 02:00N 47°35' W 003°23'5 8.9
2017-Jun-28 01:30N 47°40' W 003°22'4 8.1
2017-Jun-28 01:00N 47°44' W 003°22'0 0.0
2017-Jun-28 00:30N 47°44' W 003°22'4 8.3
2017-Jun-28 00:00N 47°40' W 003°22'5 9.3
2017-Jun-27 23:30N 47°35' W 003°23'5 9.1
2017-Jun-27 23:00N 47°31' W 003°24'4 8.9
2017-Jun-27 22:30N 47°26' W 003°25'4 8.6
2017-Jun-27 22:00N 47°22' W 003°27'4 8.6
2017-Jun-27 21:30N 47°18' W 003°28'2 0.1
2017-Jun-27 04:02N 47°19' W 003°31'1 8.8
2017-Jun-27 03:58N 47°19' W 003°31'4 8.6
2017-Jun-27 03:30N 47°23' W 003°29'4 8.7
2017-Jun-27 03:00N 47°27' W 003°27'4 9.0
2017-Jun-27 02:30N 47°31' W 003°25'4 8.8
2017-Jun-27 02:00N 47°36' W 003°23'5 9.0
2017-Jun-27 01:31N 47°40' W 003°22'4 7.4
2017-Jun-27 01:01N 47°44' W 003°22'0 0.0
2017-Jun-27 00:30N 47°44' W 003°22'2 4.4
2017-Jun-27 00:01N 47°42' W 003°22'5 9.2
2017-Jun-26 23:30N 47°37' W 003°22'4 8.9
2017-Jun-26 23:01N 47°33' W 003°24'4 8.9
2017-Jun-26 22:31N 47°28' W 003°25'4 8.7
2017-Jun-26 22:01N 47°24' W 003°27'4 8.4
2017-Jun-26 21:30N 47°20' W 003°28'3 5.5
2017-Jun-26 21:00N 47°17' W 003°29'5 0.3
2017-Jun-26 03:39N 47°15' W 003°36'3 8.8
2017-Jun-26 03:16N 47°18' W 003°33'3 8.6
2017-Jun-26 02:56N 47°21' W 003°32'4 8.7
2017-Jun-26 02:30N 47°24' W 003°30'4 8.8
2017-Jun-26 02:01N 47°28' W 003°27'4 8.8
2017-Jun-26 01:31N 47°32' W 003°25'4 8.6
2017-Jun-26 01:01N 47°36' W 003°22'4 8.9
2017-Jun-26 00:31N 47°41' W 003°22'3 5.6
2017-Jun-26 00:01N 47°44' W 003°22'  
2017-Jun-23 15:02N 47°44' W 003°22'0 0.0
2017-Jun-23 15:00N 47°44' W 003°22'0 0.0
2017-Jun-23 14:00N 47°44' W 003°22'0 0.4
2017-Jun-23 13:30N 47°44' W 003°22'0 0.0
2017-Jun-21 09:56N 47°44' W 003°22'0 0.0
2017-Jun-21 09:31N 47°44' W 003°22'0 0.0
2017-Jun-21 09:00N 47°44' W 003°22'  
Track history (hours):
 
Tides and Currents Weather Stations Pressure Air Temp Water Temp Dewpoint Dewpoint Depression Visibility Wind Speed Wind Dir Waves Ship Positions

F/V Pasiphae 2

Last reported at 2017-Jun-29 05:42 UTC. Time now 2017-Jun-29 14:24 UTC.
Position N 47°17' W 003°26'.

Length 14 m.

Type: Fishing. MMSI: 228224800.

Date/timePositionNaut miles runAvg speedWind from/ knotsBaromVisibWave heightAir tempDewpointWater temp
2017-Jun-29 05:42N 47°17' W 003°26'1 0.6
2017-Jun-29 03:53N 47°18' W 003°25'3 8.0
2017-Jun-29 03:30N 47°21' W 003°24'4 8.3
2017-Jun-29 03:00N 47°25' W 003°24'4 8.6
2017-Jun-29 02:30N 47°29' W 003°23'4 8.8
2017-Jun-29 02:00N 47°33' W 003°23'5 9.1
2017-Jun-29 01:30N 47°38' W 003°23'5 9.3
2017-Jun-29 01:00N 47°43' W 003°22'1 2.2
2017-Jun-29 00:30N 47°44' W 003°22'3 5.8
2017-Jun-29 00:00N 47°41' W 003°22'4 8.8
2017-Jun-28 23:30N 47°37' W 003°23'4 8.3
2017-Jun-28 23:00N 47°32' W 003°24'4 8.4
2017-Jun-28 22:30N 47°28' W 003°25'4 8.2
2017-Jun-28 22:00N 47°24' W 003°27'4 7.9
2017-Jun-28 21:30N 47°20' W 003°28'1311.7
2017-Jun-28 20:21N 47°08' W 003°34'1 3.3
2017-Jun-28 20:00N 47°07' W 003°33'2 0.3
2017-Jun-28 14:36N 47°08' W 003°30'11 1.0
2017-Jun-28 04:02N 47°18' W 003°28'2 8.3
2017-Jun-28 03:46N 47°20' W 003°27'2 8.5
2017-Jun-28 03:30N 47°22' W 003°26'6 8.8
2017-Jun-28 02:52N 47°28' W 003°25'3 8.8
2017-Jun-28 02:30N 47°31' W 003°24'4 8.8
2017-Jun-28 02:00N 47°35' W 003°23'5 8.9
2017-Jun-28 01:30N 47°40' W 003°22'4 8.1
2017-Jun-28 01:00N 47°44' W 003°22'0 0.0
2017-Jun-28 00:30N 47°44' W 003°22'4 8.3
2017-Jun-28 00:00N 47°40' W 003°22'5 9.3
2017-Jun-27 23:30N 47°35' W 003°23'5 9.1
2017-Jun-27 23:00N 47°31' W 003°24'4 8.9
2017-Jun-27 22:30N 47°26' W 003°25'4 8.6
2017-Jun-27 22:00N 47°22' W 003°27'4 8.6
2017-Jun-27 21:30N 47°18' W 003°28'2 0.1
2017-Jun-27 04:02N 47°19' W 003°31'1 8.8
2017-Jun-27 03:58N 47°19' W 003°31'4 8.6
2017-Jun-27 03:30N 47°23' W 003°29'4 8.7
2017-Jun-27 03:00N 47°27' W 003°27'4 9.0
2017-Jun-27 02:30N 47°31' W 003°25'4 8.8
2017-Jun-27 02:00N 47°36' W 003°23'5 9.0
2017-Jun-27 01:31N 47°40' W 003°22'4 7.4
2017-Jun-27 01:01N 47°44' W 003°22'0 0.0
2017-Jun-27 00:30N 47°44' W 003°22'2 4.4
2017-Jun-27 00:01N 47°42' W 003°22'5 9.2
2017-Jun-26 23:30N 47°37' W 003°22'4 8.9
2017-Jun-26 23:01N 47°33' W 003°24'4 8.9
2017-Jun-26 22:31N 47°28' W 003°25'4 8.7
2017-Jun-26 22:01N 47°24' W 003°27'4 8.4
2017-Jun-26 21:30N 47°20' W 003°28'3 5.5
2017-Jun-26 21:00N 47°17' W 003°29'5 0.3
2017-Jun-26 03:39N 47°15' W 003°36'3 8.8
2017-Jun-26 03:16N 47°18' W 003°33'3 8.6
2017-Jun-26 02:56N 47°21' W 003°32'4 8.7
2017-Jun-26 02:30N 47°24' W 003°30'4 8.8
2017-Jun-26 02:01N 47°28' W 003°27'4 8.8
2017-Jun-26 01:31N 47°32' W 003°25'4 8.6
2017-Jun-26 01:01N 47°36' W 003°22'4 8.9
2017-Jun-26 00:31N 47°41' W 003°22'3 5.6
2017-Jun-26 00:01N 47°44' W 003°22'  
2017-Jun-23 15:02N 47°44' W 003°22'0 0.0
2017-Jun-23 15:00N 47°44' W 003°22'0 0.0
2017-Jun-23 14:00N 47°44' W 003°22'0 0.4
2017-Jun-23 13:30N 47°44' W 003°22'0 0.0
2017-Jun-21 09:56N 47°44' W 003°22'0 0.0
2017-Jun-21 09:31N 47°44' W 003°22'0 0.0
2017-Jun-21 09:00N 47°44' W 003°22'  

Dump ship's entire track history